College Corner, Indiana
Current Conditions -  °F | °C
As of 1:53 PM on Saturday 25 Oct 2014 (Local Time) from KMIE Reporting Station
Clear Clear  
Wind Chill: 72°   Ceiling: Unl
Heat Index: 72°   Visibility: 10mi
Dew Point: 54°   Wind: 14mph
Humidity: 53%   Direction: 270°W
Pressure: 29.92"   Gusts: NA
Location:  40.4312°N, 85.0058°W
Report Text: KMIE 251753Z 27012KT 10SM CLR 22/12 A2992 RMK AO2 SLP124 T02220122 10222 20139 58009
Loading
Personal Weather Stations






























Interactive Weather Map
Tropical Storm Tracking
New forecast layout! Learn more

10-Day Weather Forecast

Advertisements
Track Severe Weather on mobile